Time;durP1;ratioP1;P1;durP2;ratioP2;P2;SDS_P1;SDS_P2;PMS_P1;PMS_P2;Temp;Humidity;BMP_temperature;BMP_pressure;BME280_temperature;BME280_humidity;BME280_pressure;Samples;Min_cycle;Max_cycle;Signal;HPM_P1;HPM_P2
2023/05/18 07:24:21;;;;;;;7.80;3.30;;;;;;;23.50;35.68;101113.01;103768;1283;600895;-72
2023/05/18 07:26:50;;;;;;;7.70;3.70;;;;;;;23.54;35.14;101111.92;107094;1249;59112;-73
2023/05/18 07:29:19;;;;;;;4.70;3.00;;;;;;;23.71;34.89;101115.36;107163;1245;58348;-72
2023/05/18 07:31:48;;;;;;;6.00;2.70;;;;;;;23.75;34.25;101115.29;107169;1248;61668;-73
2023/05/18 07:34:17;;;;;;;6.10;3.10;;;;;;;23.63;34.08;101117.86;107079;1246;60999;-71
2023/05/18 07:36:46;;;;;;;5.80;3.00;;;;;;;23.71;34.52;101111.83;107001;1257;60149;-72
2023/05/18 07:39:18;;;;;;;5.00;3.00;;;;;;;23.87;34.34;101116.66;107046;1246;73767;-71
2023/05/18 07:41:48;;;;;;;5.70;2.90;;;;;;;23.82;35.28;101113.23;107198;1242;59095;-70
2023/05/18 07:44:17;;;;;;;4.10;2.50;;;;;;;23.90;34.82;101111.68;107180;1241;60224;-71
2023/05/18 07:46:46;;;;;;;3.90;2.60;;;;;;;23.95;34.99;101112.34;107201;1255;60689;-71
2023/05/18 07:49:15;;;;;;;4.80;2.80;;;;;;;24.03;34.10;101112.44;107195;1245;71952;-72
2023/05/18 07:51:45;;;;;;;4.30;2.80;;;;;;;23.92;33.76;101112.35;107217;1246;70666;-74
2023/05/18 07:54:14;;;;;;;4.60;2.50;;;;;;;24.18;34.42;101112.67;106979;1241;73931;-68
2023/05/18 07:56:44;;;;;;;5.20;2.40;;;;;;;24.33;34.46;101117.75;107020;1249;59075;-72
2023/05/18 07:59:12;;;;;;;7.10;3.30;;;;;;;24.04;33.97;101122.05;109376;1248;61189;-71
2023/05/18 08:01:43;;;;;;;4.70;2.60;;;;;;;23.92;33.74;101120.48;109527;1244;73098;-71
2023/05/18 08:04:12;;;;;;;6.30;2.60;;;;;;;23.91;32.70;101112.88;109581;1245;72349;-71
2023/05/18 08:06:42;;;;;;;5.00;2.80;;;;;;;23.95;33.48;101111.74;109445;1244;71211;-70
2023/05/18 08:09:11;;;;;;;4.50;2.70;;;;;;;23.98;33.69;101108.23;109583;1245;63834;-72
2023/05/18 08:11:43;;;;;;;4.90;2.40;;;;;;;23.92;34.15;101112.98;109463;1248;61180;-70
2023/05/18 08:14:13;;;;;;;3.70;2.40;;;;;;;23.81;33.94;101110.59;109416;1248;62183;-73
2023/05/18 08:16:42;;;;;;;6.40;3.20;;;;;;;23.92;33.94;101112.81;109487;1244;73108;-72
2023/05/18 08:19:11;;;;;;;4.80;2.70;;;;;;;24.06;33.62;101112.02;109570;1244;72455;-72
2023/05/18 08:21:40;;;;;;;6.30;2.50;;;;;;;24.21;33.25;101104.94;109558;1244;71155;-73
2023/05/18 08:24:09;;;;;;;6.60;3.00;;;;;;;24.06;33.01;101111.08;109518;1244;64978;-70
2023/05/18 08:26:37;;;;;;;4.30;2.90;;;;;;;24.36;33.33;101106.88;109434;1244;61224;-71
2023/05/18 08:29:09;;;;;;;4.10;2.50;;;;;;;24.67;32.69;101107.50;109563;1244;57803;-70
2023/05/18 08:31:40;;;;;;;6.50;2.90;;;;;;;24.65;32.37;101102.27;109586;1245;72060;-71
2023/05/18 08:34:09;;;;;;;5.60;2.70;;;;;;;24.74;31.92;101104.95;109474;1244;63022;-70
2023/05/18 08:36:38;;;;;;;6.30;3.00;;;;;;;24.46;32.44;101100.95;109420;1244;70058;-71
2023/05/18 08:39:08;;;;;;;5.40;3.00;;;;;;;24.84;32.00;101104.72;109376;1244;74169;-71
2023/05/18 08:41:59;;;;;;;5.10;2.70;;;;;;;24.70;31.21;101101.68;109515;1245;60845;-72
2023/05/18 08:45:10;;;;;;;4.40;2.80;;;;;;;24.86;31.47;101101.48;109587;1245;61584;-71
2023/05/18 08:47:40;;;;;;;5.40;3.10;;;;;;;25.17;30.52;101091.79;109457;1242;62187;-71
2023/05/18 08:50:12;;;;;;;5.00;3.20;;;;;;;25.46;29.57;101096.46;109440;1245;71177;-71
2023/05/18 08:52:46;;;;;;;7.30;3.50;;;;;;;25.60;30.21;101097.76;109567;1244;59980;-70
2023/05/18 08:55:17;;;;;;;6.60;3.50;;;;;;;25.88;29.76;101095.16;109443;1244;72920;-71
2023/05/18 08:57:54;;;;;;;7.00;3.90;;;;;;;25.81;29.01;101092.58;109538;1245;57142;-70
2023/05/18 09:00:24;;;;;;;7.30;3.90;;;;;;;25.72;29.00;101089.62;109533;1244;61219;-71
2023/05/18 09:02:54;;;;;;;5.70;3.30;;;;;;;25.29;29.01;101089.89;109456;1245;62662;-71
2023/05/18 09:05:23;;;;;;;7.10;3.70;;;;;;;25.12;28.99;101092.38;109484;1245;61601;-71
2023/05/18 09:07:54;;;;;;;8.70;3.70;;;;;;;25.41;29.11;101093.48;109550;1244;59068;-70
2023/05/18 09:10:23;;;;;;;6.80;3.50;;;;;;;25.59;28.62;101091.14;109532;1245;65108;-70
2023/05/18 09:12:53;;;;;;;6.90;3.60;;;;;;;25.74;29.04;101088.11;109334;1248;60964;-71
2023/05/18 09:15:24;;;;;;;8.10;4.60;;;;;;;26.01;28.95;101087.88;109548;1245;57210;-71
2023/05/18 09:17:53;;;;;;;8.00;3.90;;;;;;;25.97;28.91;101095.47;109519;1244;72718;-71
2023/05/18 09:20:25;;;;;;;5.30;3.60;;;;;;;26.01;28.59;101093.04;109448;1245;72556;-71
2023/05/18 09:22:53;;;;;;;4.90;3.80;;;;;;;26.11;28.60;101092.52;109627;1244;70919;-71
2023/05/18 09:25:24;;;;;;;5.30;3.50;;;;;;;26.05;28.77;101094.90;109477;1244;63961;-71
2023/05/18 09:27:54;;;;;;;4.40;3.30;;;;;;;26.29;28.58;101088.05;109499;1245;60369;-71
2023/05/18 09:30:24;;;;;;;5.70;3.40;;;;;;;26.08;28.49;101091.12;109529;1245;60342;-71
2023/05/18 09:32:53;;;;;;;11.30;3.90;;;;;;;25.92;29.02;101090.19;109617;1243;73277;-72
2023/05/18 09:35:24;;;;;;;7.10;3.80;;;;;;;25.64;29.58;101091.55;109324;1244;61843;-72
2023/05/18 09:37:53;;;;;;;5.40;3.50;;;;;;;25.28;29.74;101091.94;109481;1244;69896;-70
2023/05/18 09:40:28;;;;;;;6.50;3.50;;;;;;;25.53;29.95;101089.32;109499;1243;62900;-72
2023/05/18 09:42:57;;;;;;;5.60;3.80;;;;;;;25.75;29.25;101087.87;109481;1245;58115;-69
2023/05/18 09:45:27;;;;;;;6.10;3.50;;;;;;;25.73;29.91;101087.89;109444;1245;60675;-70
2023/05/18 09:47:56;;;;;;;5.70;3.40;;;;;;;25.89;30.15;101087.13;109581;1241;63699;-69
2023/05/18 09:50:26;;;;;;;5.50;2.90;;;;;;;25.64;30.43;101082.79;109772;1241;61156;-73
2023/05/18 09:52:56;;;;;;;5.90;3.20;;;;;;;25.47;30.89;101082.44;109615;1244;59967;-71
2023/05/18 09:55:25;;;;;;;5.70;3.10;;;;;;;25.60;31.40;101081.98;109473;1244;71212;-72
2023/05/18 09:57:55;;;;;;;4.00;2.80;;;;;;;25.49;31.53;101081.00;109701;1245;57708;-70
2023/05/18 10:00:25;;;;;;;4.90;3.10;;;;;;;25.38;30.74;101078.04;109510;1247;57710;-71
2023/05/18 10:02:55;;;;;;;3.90;3.10;;;;;;;25.51;30.81;101073.64;109469;1244;62287;-70
2023/05/18 10:05:26;;;;;;;3.70;2.80;;;;;;;25.57;30.57;101076.51;109644;1244;61621;-70
2023/05/18 10:07:56;;;;;;;4.40;2.80;;;;;;;25.34;31.02;101074.11;109460;1241;60003;-71
2023/05/18 10:10:30;;;;;;;8.20;3.30;;;;;;;25.59;31.25;101073.80;109625;1241;63295;-71
2023/05/18 10:13:00;;;;;;;4.90;3.20;;;;;;;25.74;31.02;101069.25;109422;1245;61265;-71
2023/05/18 10:15:29;;;;;;;7.20;2.90;;;;;;;26.00;30.95;101069.89;109497;1241;57358;-70
2023/05/18 10:18:02;;;;;;;7.20;3.10;;;;;;;26.04;30.79;101072.17;109443;1241;62245;-70
2023/05/18 10:20:31;;;;;;;4.20;2.90;;;;;;;25.99;30.42;101070.80;109434;1241;72013;-69
2023/05/18 10:23:04;;;;;;;6.90;3.10;;;;;;;26.21;30.40;101070.48;109441;1241;60496;-71
2023/05/18 10:25:34;;;;;;;5.50;3.30;;;;;;;26.51;30.25;101063.86;109395;1245;74366;-70
2023/05/18 10:28:09;;;;;;;5.60;3.20;;;;;;;26.12;30.53;101068.52;109487;1245;57609;-70
2023/05/18 10:30:42;;;;;;;4.80;2.90;;;;;;;26.17;30.79;101065.75;109424;1241;57184;-72
2023/05/18 10:33:12;;;;;;;5.30;3.10;;;;;;;25.97;30.64;101056.37;109497;1241;62696;-71
2023/05/18 10:35:57;;;;;;;4.70;3.00;;;;;;;26.07;30.61;101059.12;109314;1245;70610;-70
2023/05/18 10:38:27;;;;;;;6.20;3.30;;;;;;;26.24;30.57;101062.77;109400;1241;71015;-71
2023/05/18 10:40:59;;;;;;;4.60;3.00;;;;;;;26.47;30.23;101065.00;109475;1241;63598;-71
2023/05/18 10:43:28;;;;;;;8.80;3.30;;;;;;;26.54;29.74;101061.84;109373;1244;59449;-72
2023/05/18 10:46:01;;;;;;;4.70;3.60;;;;;;;26.80;29.77;101060.20;109475;1241;61520;-71
2023/05/18 10:48:30;;;;;;;5.20;3.60;;;;;;;26.35;30.07;101056.46;109402;1241;73251;-71
2023/05/18 10:50:59;;;;;;;6.80;3.90;;;;;;;26.23;30.00;101055.79;109511;1242;64232;-71
2023/05/18 10:53:28;;;;;;;6.40;3.80;;;;;;;26.06;30.14;101055.32;109502;1241;59509;-71
2023/05/18 10:55:57;;;;;;;6.80;3.80;;;;;;;26.20;30.20;101056.34;109521;1241;62321;-74
2023/05/18 10:58:29;;;;;;;6.20;3.50;;;;;;;26.30;30.20;101057.83;109557;1241;57647;-71
2023/05/18 11:01:00;;;;;;;;;;;;;;;26.99;29.82;101053.18;109607;1245;57728;-73
2023/05/18 11:03:31;;;;;;;6.60;3.20;;;;;;;27.30;28.96;101052.65;109606;1241;71905;-73
2023/05/18 11:06:13;;;;;;;6.90;2.90;;;;;;;27.77;28.84;101046.41;109547;1241;71015;-71
2023/05/18 11:08:49;;;;;;;7.00;3.50;;;;;;;28.04;28.64;101045.49;109554;1241;61072;-74
2023/05/18 11:11:24;;;;;;;7.80;3.10;;;;;;;27.98;28.34;101048.16;109464;1241;63296;-74
2023/05/18 11:13:53;;;;;;;6.40;3.10;;;;;;;27.44;28.93;101044.20;109365;1244;57103;-73
2023/05/18 11:16:33;;;;;;;5.30;3.20;;;;;;;27.02;29.72;101045.27;109507;1244;57171;-74
2023/05/18 11:19:08;;;;;;;5.40;3.20;;;;;;;27.07;29.52;101050.57;109422;1244;62796;-72
2023/05/18 11:21:40;;;;;;;5.10;3.10;;;;;;;26.49;30.61;101049.45;109356;1244;62643;-72
2023/05/18 11:24:31;;;;;;;6.10;3.30;;;;;;;26.60;30.89;101044.23;109436;1243;70775;-72
2023/05/18 11:27:11;;;;;;;4.10;3.30;;;;;;;26.32;31.01;101045.63;109269;1245;74224;-73
2023/05/18 11:29:51;;;;;;;8.70;3.50;;;;;;;26.15;30.74;101043.47;109301;1245;60960;-74
2023/05/18 11:32:35;;;;;;;4.90;3.20;;;;;;;26.23;30.84;101037.95;109362;1246;58085;-75
2023/05/18 11:35:09;;;;;;;5.90;3.30;;;;;;;26.74;29.92;101034.64;109466;1243;72631;-74
2023/05/18 11:37:39;;;;;;;7.20;3.40;;;;;;;27.24;29.54;101033.62;109286;1242;72699;-72
2023/05/18 11:40:45;;;;;;;4.60;3.10;;;;;;;27.44;28.96;101032.43;109321;1244;71858;-72
2023/05/18 11:43:23;;;;;;;7.30;3.70;;;;;;;28.10;28.28;101031.55;109338;1244;65523;-73
2023/05/18 11:45:58;;;;;;;6.60;3.70;;;;;;;28.40;27.26;101027.11;109345;1243;57741;-73
2023/05/18 11:48:30;;;;;;;8.20;3.50;;;;;;;28.99;26.99;101020.11;109385;1247;57263;-73
2023/05/18 11:50:59;;;;;;;4.20;3.40;;;;;;;28.82;27.14;101029.22;109615;1245;63115;-73
2023/05/18 11:53:29;;;;;;;6.70;3.00;;;;;;;29.02;26.85;101031.34;109394;1242;72594;-73
2023/05/18 11:55:58;;;;;;;4.60;3.70;;;;;;;29.00;26.81;101028.69;109353;1245;70938;-72
2023/05/18 11:58:30;;;;;;;4.90;3.30;;;;;;;28.62;26.90;101029.64;109325;1246;73966;-73
2023/05/18 12:01:01;;;;;;;7.10;3.60;;;;;;;28.16;26.78;101030.16;109478;1245;57245;-71
2023/05/18 12:03:31;;;;;;;5.10;3.40;;;;;;;27.61;27.47;101029.93;109404;1244;60572;-71
2023/05/18 12:06:01;;;;;;;9.20;3.70;;;;;;;27.42;28.50;101024.20;109424;1241;73949;-72
2023/05/18 12:08:30;;;;;;;5.60;3.70;;;;;;;27.54;28.44;101026.96;109604;1241;63136;-73
2023/05/18 12:11:01;;;;;;;12.20;4.10;;;;;;;27.70;28.37;101034.59;109485;1241;68961;-72
2023/05/18 12:13:30;;;;;;;8.50;4.90;;;;;;;28.04;27.90;101036.61;109675;1241;73107;-72
2023/05/18 12:16:00;;;;;;;8.70;4.90;;;;;;;27.93;27.66;101030.57;109349;1248;57739;-72
2023/05/18 12:18:33;;;;;;;8.80;3.50;;;;;;;28.36;26.92;101029.98;109667;1244;57786;-73
2023/05/18 12:21:04;;;;;;;5.40;3.20;;;;;;;28.77;26.17;101027.72;109587;1241;64035;-73
2023/05/18 12:23:37;;;;;;;6.00;4.10;;;;;;;29.02;25.54;101027.14;109569;1241;62410;-73
2023/05/18 12:26:06;;;;;;;7.20;3.70;;;;;;;28.73;25.89;101031.59;109462;1241;70207;-73
2023/05/18 12:28:35;;;;;;;4.90;3.30;;;;;;;28.42;26.07;101027.48;109670;1244;63553;-73
2023/05/18 12:31:07;;;;;;;7.40;4.20;;;;;;;28.61;25.82;101027.61;109560;1241;57711;-73
2023/05/18 12:33:36;;;;;;;4.90;3.90;;;;;;;28.85;25.77;101021.66;109696;1243;57449;-73
2023/05/18 12:36:10;;;;;;;8.10;4.10;;;;;;;28.63;26.04;101023.27;109591;1241;64016;-73
2023/05/18 12:38:40;;;;;;;4.70;3.40;;;;;;;28.82;26.21;101025.48;109453;1242;71200;-74
2023/05/18 12:41:09;;;;;;;6.90;3.70;;;;;;;29.02;25.91;101018.14;109467;1241;62847;-73
2023/05/18 12:43:37;;;;;;;7.00;3.60;;;;;;;28.79;25.72;101020.21;109463;1241;74154;-74
2023/05/18 12:46:06;;;;;;;6.30;3.70;;;;;;;28.46;26.04;101020.95;109413;1245;61060;-73
2023/05/18 12:48:44;;;;;;;8.10;4.30;;;;;;;28.51;26.56;101018.17;109625;1241;61781;-72
2023/05/18 12:51:19;;;;;;;6.70;3.80;;;;;;;28.43;27.15;101021.27;109517;1241;64803;-73
2023/05/18 12:53:49;;;;;;;6.40;3.60;;;;;;;28.51;26.61;101013.33;109713;1241;61266;-72
2023/05/18 12:56:19;;;;;;;4.90;3.70;;;;;;;28.86;26.56;101011.16;109470;1245;59179;-73
2023/05/18 12:59:03;;;;;;;5.70;3.80;;;;;;;28.67;26.92;101010.28;109467;1247;65126;-73
2023/05/18 13:01:42;;;;;;;8.30;3.50;;;;;;;28.57;26.51;101010.71;109382;1245;57284;-72
2023/05/18 13:04:12;;;;;;;6.20;3.40;;;;;;;28.65;27.07;101014.80;109419;1247;57948;-72
2023/05/18 13:06:41;;;;;;;7.10;3.80;;;;;;;28.08;27.06;101019.77;109474;1241;71968;-72
2023/05/18 13:09:12;;;;;;;8.30;4.10;;;;;;;27.75;27.45;101018.48;109584;1241;63356;-73
2023/05/18 13:11:50;;;;;;;7.30;3.90;;;;;;;27.74;27.71;101016.60;109421;1241;59579;-73
2023/05/18 13:14:37;;;;;;;7.30;4.10;;;;;;;27.64;28.04;101016.05;109445;1248;62505;-72
2023/05/18 13:17:06;;;;;;;6.80;4.10;;;;;;;27.67;28.05;101014.88;109499;1247;57659;-72
2023/05/18 13:19:35;;;;;;;8.40;4.00;;;;;;;27.84;27.85;101013.95;109741;1241;57253;-73
2023/05/18 13:22:04;;;;;;;8.70;3.90;;;;;;;28.18;27.49;101014.69;109644;1244;62167;-73
2023/05/18 13:24:33;;;;;;;7.80;3.90;;;;;;;28.17;26.91;101013.50;109645;1244;61664;-74
2023/05/18 13:27:03;;;;;;;8.50;4.30;;;;;;;28.34;26.49;101009.03;109715;1244;60130;-76
2023/05/18 13:29:33;;;;;;;65.70;24.40;;;;;;;28.49;26.03;101006.88;109470;1247;63283;-72
2023/05/18 13:32:02;;;;;;;9.70;4.70;;;;;;;28.40;26.37;101002.65;109596;1244;57166;-73
2023/05/18 13:34:31;;;;;;;9.80;5.90;;;;;;;28.70;26.11;101002.93;109709;1241;57119;-73
2023/05/18 13:37:00;;;;;;;7.40;4.50;;;;;;;28.30;25.71;101000.37;109337;1244;61974;-75
2023/05/18 13:39:29;;;;;;;18.50;9.90;;;;;;;28.48;25.75;101002.11;109734;1241;72177;-74
2023/05/18 13:41:58;;;;;;;10.40;5.10;;;;;;;28.96;24.91;100998.73;109663;1241;70917;-71
2023/05/18 13:44:27;;;;;;;12.60;6.90;;;;;;;29.79;24.06;101000.07;109559;1244;63631;-70
2023/05/18 13:46:56;;;;;;;4.70;4.00;;;;;;;30.40;23.81;100997.02;109703;1241;57713;-73
2023/05/18 13:49:25;;;;;;;7.40;3.70;;;;;;;30.75;23.64;101000.96;109674;1244;61162;-72
2023/05/18 13:51:54;;;;;;;7.40;4.70;;;;;;;29.80;24.07;101002.40;109706;1242;73940;-72
2023/05/18 13:54:22;;;;;;;9.50;5.30;;;;;;;28.95;25.11;101002.89;109691;1244;73260;-73
2023/05/18 13:56:51;;;;;;;22.40;12.90;;;;;;;28.56;25.64;101006.02;109694;1244;60687;-73
2023/05/18 13:59:21;;;;;;;16.60;10.30;;;;;;;28.02;26.12;101006.88;109543;1244;63219;-71
2023/05/18 14:01:50;;;;;;;25.00;13.50;;;;;;;27.70;26.70;101006.02;109537;1244;57818;-72
2023/05/18 14:04:20;;;;;;;6.80;4.90;;;;;;;27.74;27.28;101010.80;109417;1241;61036;-69
2023/05/18 14:06:52;;;;;;;11.70;5.80;;;;;;;27.74;26.97;100999.77;109604;1241;72220;-71
2023/05/18 14:09:22;;;;;;;15.40;7.10;;;;;;;27.53;27.04;101004.95;109626;1244;71444;-73
2023/05/18 14:11:51;;;;;;;8.50;6.20;;;;;;;27.28;26.51;100999.27;109508;1241;71298;-71
2023/05/18 14:14:21;;;;;;;8.90;4.80;;;;;;;27.38;26.65;101001.61;109432;1241;63671;-71
2023/05/18 14:16:51;;;;;;;7.80;4.70;;;;;;;27.53;26.81;101001.91;109316;1248;57113;-72
2023/05/18 14:19:20;;;;;;;6.50;4.20;;;;;;;27.29;26.65;100998.06;109621;1241;57679;-70
2023/05/18 14:21:49;;;;;;;6.70;4.60;;;;;;;27.78;26.31;101001.70;109648;1241;72720;-71
2023/05/18 14:24:18;;;;;;;6.90;4.50;;;;;;;28.70;24.66;101003.16;109659;1241;63169;-72
2023/05/18 14:26:47;;;;;;;12.30;7.80;;;;;;;29.39;23.82;101001.52;109537;1241;60248;-71
2023/05/18 14:29:16;;;;;;;6.90;4.20;;;;;;;30.30;23.15;101005.17;109648;1241;73225;-70
2023/05/18 14:31:45;;;;;;;9.00;4.90;;;;;;;30.75;22.72;101007.36;109551;1244;60925;-70
2023/05/18 14:34:14;;;;;;;8.70;4.40;;;;;;;30.42;22.98;101006.41;109504;1244;57434;-73
2023/05/18 14:36:43;;;;;;;5.80;4.30;;;;;;;30.18;23.66;101007.66;109649;1241;62207;-71
2023/05/18 14:39:12;;;;;;;9.10;4.70;;;;;;;30.13;24.30;101007.58;109550;1244;63391;-71
2023/05/18 14:41:41;;;;;;;10.90;6.30;;;;;;;29.98;24.48;101011.30;109729;1241;70896;-69
2023/05/18 14:44:10;;;;;;;8.30;4.50;;;;;;;29.32;25.13;101014.80;109527;1241;74405;-70
2023/05/18 14:46:39;;;;;;;8.30;4.50;;;;;;;30.21;24.75;101013.73;109528;1244;61648;-71
2023/05/18 14:49:08;;;;;;;9.10;4.40;;;;;;;31.26;23.05;101015.35;109383;1246;60945;-71
2023/05/18 14:51:37;;;;;;;17.10;6.00;;;;;;;31.40;22.06;101010.06;109567;1241;63758;-71
2023/05/18 14:54:06;;;;;;;11.80;5.10;;;;;;;31.64;21.63;101004.16;109471;1244;60841;-72
2023/05/18 14:56:35;;;;;;;8.70;5.40;;;;;;;32.35;21.12;101003.30;109591;1241;60001;-71
2023/05/18 14:59:04;;;;;;;7.90;4.60;;;;;;;31.86;21.08;100996.66;109473;1244;74577;-71
2023/05/18 15:01:33;;;;;;;7.70;4.60;;;;;;;31.78;20.60;100997.77;109489;1245;57459;-71
2023/05/18 15:04:01;;;;;;;6.50;4.40;;;;;;;31.80;20.62;100995.17;109697;1244;61172;-72
2023/05/18 15:06:32;;;;;;;6.30;4.30;;;;;;;31.06;21.72;100997.04;109552;1242;74172;-71
2023/05/18 15:09:00;;;;;;;6.30;3.70;;;;;;;30.62;22.16;100998.04;109494;1244;72120;-75
2023/05/18 15:11:29;;;;;;;8.50;4.60;;;;;;;30.22;22.49;100997.45;109656;1241;60446;-71
2023/05/18 15:13:58;;;;;;;7.90;4.00;;;;;;;29.98;23.13;100994.74;109600;1244;65139;-71
2023/05/18 15:16:26;;;;;;;6.30;4.00;;;;;;;30.00;23.13;100992.73;109507;1243;57698;-71
2023/05/18 15:18:55;;;;;;;8.70;4.40;;;;;;;30.22;22.77;100992.26;109485;1243;57273;-71
2023/05/18 15:21:24;;;;;;;7.80;4.00;;;;;;;29.83;23.38;100994.59;109452;1243;62511;-72
2023/05/18 15:23:53;;;;;;;7.40;4.60;;;;;;;29.64;23.67;100997.33;109514;1241;61691;-71
2023/05/18 15:26:22;;;;;;;7.00;3.90;;;;;;;30.08;23.26;101002.61;109485;1241;70452;-71
2023/05/18 15:28:50;;;;;;;6.30;4.20;;;;;;;29.79;23.57;101004.13;109489;1243;72855;-72
2023/05/18 15:31:19;;;;;;;7.40;4.20;;;;;;;29.47;23.73;101003.77;109538;1244;57615;-71
2023/05/18 15:33:48;;;;;;;8.70;4.20;;;;;;;28.85;24.66;101005.27;109623;1241;57174;-71
2023/05/18 15:36:17;;;;;;;6.90;4.50;;;;;;;28.49;25.40;101006.82;109562;1241;73704;-70
2023/05/18 15:38:46;;;;;;;10.70;5.10;;;;;;;28.37;25.36;101011.92;109473;1243;72486;-72
2023/05/18 15:41:14;;;;;;;9.60;4.80;;;;;;;28.08;25.80;101011.47;109502;1242;70091;-71
2023/05/18 15:43:45;;;;;;;8.90;4.80;;;;;;;27.77;25.99;101013.70;109413;1244;64271;-71
2023/05/18 15:46:14;;;;;;;14.20;5.80;;;;;;;27.78;26.11;101015.18;109477;1241;60149;-72
2023/05/18 15:48:43;;;;;;;11.00;6.20;;;;;;;27.30;26.24;101013.55;109512;1241;60724;-72
2023/05/18 15:51:12;;;;;;;11.90;6.50;;;;;;;26.98;26.71;101017.15;109360;1241;62585;-71
2023/05/18 15:53:42;;;;;;;13.20;6.60;;;;;;;26.86;27.17;101017.55;109453;1241;61535;-70
2023/05/18 15:56:10;;;;;;;9.70;6.20;;;;;;;26.82;27.36;101020.32;109628;1242;61883;-71
2023/05/18 15:58:40;;;;;;;7.60;5.70;;;;;;;26.68;27.75;101018.01;109389;1241;73376;-71
2023/05/18 16:01:09;;;;;;;8.60;5.60;;;;;;;26.57;27.69;101021.00;109467;1244;61558;-71
2023/05/18 16:03:38;;;;;;;9.80;6.60;;;;;;;26.50;28.12;101026.42;109505;1241;61584;-70
2023/05/18 16:06:07;;;;;;;9.10;6.00;;;;;;;26.42;28.42;101029.00;109470;1242;73911;-72
2023/05/18 16:08:36;;;;;;;9.90;6.40;;;;;;;26.39;28.91;101029.23;109482;1241;73234;-71
2023/05/18 16:11:05;;;;;;;8.30;6.00;;;;;;;26.37;29.14;101033.48;109461;1241;70490;-71
2023/05/18 16:13:34;;;;;;;10.30;5.80;;;;;;;26.27;29.26;101032.73;109355;1244;72909;-72
2023/05/18 16:16:05;;;;;;;11.30;6.40;;;;;;;26.18;29.41;101030.42;109339;1241;57175;-72
2023/05/18 16:18:34;;;;;;;10.40;6.40;;;;;;;26.04;29.50;101031.41;109502;1241;57173;-71
2023/05/18 16:21:03;;;;;;;13.60;6.50;;;;;;;26.04;30.01;101036.38;109472;1244;65217;-71
2023/05/18 16:23:31;;;;;;;10.40;6.00;;;;;;;25.98;30.00;101037.00;109451;1241;72947;-71
2023/05/18 16:26:04;;;;;;;10.10;6.30;;;;;;;25.97;29.79;101035.38;109443;1242;60149;-70
2023/05/18 16:28:33;;;;;;;;;;;;;;;25.85;30.42;101037.50;109348;1242;73228;-72
2023/05/18 16:31:06;;;;;;;11.80;7.50;;;;;;;25.90;30.27;101039.77;109300;1244;60862;-72
2023/05/18 16:33:36;;;;;;;10.90;6.70;;;;;;;26.12;30.17;101042.27;109299;1244;57622;-74
2023/05/18 16:36:06;;;;;;;11.70;6.90;;;;;;;26.16;30.29;101045.49;109439;1241;63589;-70
2023/05/18 16:38:36;;;;;;;12.50;7.10;;;;;;;25.98;30.46;101048.90;109524;1242;61606;-72
2023/05/18 16:41:05;;;;;;;9.90;6.80;;;;;;;25.84;30.91;101048.70;109480;1244;68922;-73
2023/05/18 16:43:34;;;;;;;16.40;6.80;;;;;;;25.87;30.83;101049.38;109480;1241;63618;-72
2023/05/18 16:46:03;;;;;;;13.30;8.90;;;;;;;25.94;30.95;101051.44;109407;1242;57825;-70
2023/05/18 16:48:32;;;;;;;13.10;7.40;;;;;;;25.82;31.21;101052.37;109396;1244;57712;-71
2023/05/18 16:51:05;;;;;;;9.80;7.60;;;;;;;25.71;31.28;101054.61;109391;1244;62159;-71
2023/05/18 16:53:35;;;;;;;14.30;7.60;;;;;;;25.62;31.74;101055.41;109487;1241;61683;-72
2023/05/18 16:56:04;;;;;;;11.70;7.60;;;;;;;25.47;32.69;101054.42;109295;1243;70753;-71
2023/05/18 16:58:32;;;;;;;14.40;7.80;;;;;;;25.38;33.27;101054.84;109387;1242;65569;-79
2023/05/18 17:01:01;;;;;;;11.70;7.50;;;;;;;25.30;33.86;101060.84;109506;1242;57629;-76
2023/05/18 17:03:37;;;;;;;12.20;7.90;;;;;;;25.11;34.52;101060.34;109548;1243;59082;-75
2023/05/18 17:06:07;;;;;;;12.80;7.50;;;;;;;24.92;35.26;101060.21;109653;1241;73557;-75
2023/05/18 17:08:36;;;;;;;11.20;7.50;;;;;;;24.69;35.56;101061.42;109604;1241;72518;-77
2023/05/18 17:11:04;;;;;;;13.60;7.50;;;;;;;24.45;36.11;101063.61;109576;1242;70588;-76
2023/05/18 17:13:33;;;;;;;17.80;8.30;;;;;;;24.27;36.52;101062.82;109585;1242;63331;-76
2023/05/18 17:16:03;;;;;;;24.10;8.00;;;;;;;24.01;37.19;101064.95;109589;1244;57729;-75
2023/05/18 17:18:32;;;;;;;18.00;8.60;;;;;;;23.76;38.46;101067.20;109615;1244;60408;-76
2023/05/18 17:21:01;;;;;;;17.90;8.80;;;;;;;23.63;39.84;101066.80;109714;1241;73214;-77
2023/05/18 17:23:30;;;;;;;13.70;7.70;;;;;;;23.39;41.12;101066.30;109419;1241;61297;-76
2023/05/18 17:25:59;;;;;;;16.40;8.10;;;;;;;23.22;42.90;101069.51;109649;1242;60151;-75
2023/05/18 17:28:33;;;;;;;16.90;7.50;;;;;;;23.05;43.61;101071.85;109654;1241;73044;-74
2023/05/18 17:31:02;;;;;;;15.70;8.20;;;;;;;22.86;44.50;101073.21;109557;1241;57346;-75
2023/05/18 17:33:31;;;;;;;15.40;8.20;;;;;;;22.70;44.88;101078.70;109660;1241;57898;-75
2023/05/18 17:36:00;;;;;;;12.60;7.70;;;;;;;22.52;45.06;101080.83;109653;1242;62943;-76
2023/05/18 17:38:29;;;;;;;13.40;8.50;;;;;;;22.35;45.08;101077.64;109611;1241;70610;-76
2023/05/18 17:40:58;;;;;;;16.70;8.20;;;;;;;22.15;46.60;101081.70;109600;1242;60419;-74
2023/05/18 17:43:27;;;;;;;11.10;7.90;;;;;;;21.95;47.34;101079.55;109665;1244;72981;-75
2023/05/18 17:45:55;;;;;;;12.70;7.90;;;;;;;21.70;49.81;101086.19;109434;1241;60910;-75
2023/05/18 17:48:24;;;;;;;12.00;8.00;;;;;;;21.54;49.50;101085.83;109630;1241;57679;-76
2023/05/18 17:50:53;;;;;;;12.60;8.10;;;;;;;21.39;48.76;101088.06;109630;1244;62112;-76
2023/05/18 17:53:22;;;;;;;12.40;8.00;;;;;;;21.22;48.68;101092.30;109624;1243;71028;-75
2023/05/18 17:55:51;;;;;;;13.50;7.90;;;;;;;21.04;47.61;101090.06;109621;1243;70927;-74
2023/05/18 17:58:20;;;;;;;10.70;7.90;;;;;;;20.86;47.08;101093.06;109439;1244;63563;-75
2023/05/18 18:00:49;;;;;;;11.00;7.90;;;;;;;20.68;47.90;101095.27;109437;1242;57446;-76
2023/05/18 18:03:19;;;;;;;11.30;8.70;;;;;;;20.46;49.89;101102.06;109464;1244;61142;-77
2023/05/18 18:05:48;;;;;;;13.20;7.80;;;;;;;20.28;49.99;101105.66;109470;1242;63018;-71
2023/05/18 18:08:17;;;;;;;12.30;8.10;;;;;;;20.13;50.37;101104.34;109501;1243;61641;-72
2023/05/18 18:10:46;;;;;;;11.10;7.60;;;;;;;19.95;52.96;101110.27;109499;1244;70484;-72
2023/05/18 18:13:14;;;;;;;11.80;7.70;;;;;;;19.84;53.31;101111.70;109495;1241;73670;-72
2023/05/18 18:15:43;;;;;;;12.70;8.30;;;;;;;19.71;54.14;101116.39;109424;1244;57744;-71
2023/05/18 18:18:12;;;;;;;19.20;10.70;;;;;;;19.56;55.66;101120.79;109515;1244;57790;-72
2023/05/18 18:20:41;;;;;;;13.60;8.50;;;;;;;19.45;56.08;101121.66;109343;1244;62143;-71
2023/05/18 18:23:10;;;;;;;11.70;8.20;;;;;;;19.39;55.95;101123.95;109548;1244;61509;-73
2023/05/18 18:25:39;;;;;;;13.50;8.40;;;;;;;19.31;56.09;101127.02;109541;1244;59982;-72
2023/05/18 18:28:13;;;;;;;15.50;8.10;;;;;;;19.24;56.43;101129.56;109475;1244;72092;-76
2023/05/18 18:30:43;;;;;;;15.30;8.40;;;;;;;19.16;56.71;101131.60;109483;1244;61672;-70
2023/05/18 18:33:13;;;;;;;10.70;7.30;;;;;;;19.15;54.94;101137.65;109303;1243;57723;-70
2023/05/18 18:35:42;;;;;;;13.60;7.60;;;;;;;19.13;52.79;101138.83;109447;1241;62958;-71
2023/05/18 18:38:14;;;;;;;10.80;6.90;;;;;;;19.10;51.60;101140.52;109506;1244;70579;-80
2023/05/18 18:40:43;;;;;;;24.00;10.40;;;;;;;19.22;54.62;101152.27;109349;1245;70313;-71
2023/05/18 18:43:12;;;;;;;16.10;9.50;;;;;;;19.21;54.10;101156.33;109498;1241;73316;-72
2023/05/18 18:45:41;;;;;;;14.30;8.90;;;;;;;19.20;53.82;101165.03;109516;1242;60957;-72
2023/05/18 18:48:09;;;;;;;22.90;9.90;;;;;;;19.21;56.12;101167.39;109358;1243;61650;-74
2023/05/18 18:50:38;;;;;;;27.30;15.50;;;;;;;19.33;60.07;101170.58;109358;1241;73925;-72
2023/05/18 18:53:07;;;;;;;26.20;16.20;;;;;;;19.44;65.03;101174.45;109556;1244;62178;-71